Time;durP1;ratioP1;P1;durP2;ratioP2;P2;SDS_P1;SDS_P2;PMS_P1;PMS_P2;Temp;Humidity;BMP_temperature;BMP_pressure;BME280_temperature;BME280_humidity;BME280_pressure;Samples;Min_cycle;Max_cycle;Signal;HPM_P1;HPM_P2
2021/12/25 00:01:24;;;;;;;36.30;20.57;;;9.40;99.90;;;;;;5017850;28;20476;-46
2021/12/25 00:03:55;;;;;;;43.37;21.03;;;9.30;99.90;;;;;;5032401;28;20474;-45
2021/12/25 00:06:22;;;;;;;34.27;18.77;;;9.20;99.90;;;;;;5041508;28;20468;-46
2021/12/25 00:08:49;;;;;;;36.70;19.07;;;9.30;99.90;;;;;;5023735;28;20471;-45
2021/12/25 00:11:16;;;;;;;32.63;18.20;;;9.30;99.90;;;;;;5013269;28;20483;-44
2021/12/25 00:13:44;;;;;;;40.53;20.93;;;9.30;99.90;;;;;;5021978;28;20514;-45
2021/12/25 00:16:11;;;;;;;36.60;20.47;;;9.40;99.90;;;;;;5017395;28;20835;-44
2021/12/25 00:18:38;;;;;;;36.67;20.10;;;9.30;99.90;;;;;;5022798;28;21016;-45
2021/12/25 00:21:08;;;;;;;35.27;20.13;;;9.40;99.90;;;;;;5027261;28;20471;-45
2021/12/25 00:23:35;;;;;;;35.63;20.00;;;9.50;99.90;;;;;;5021508;28;20490;-45
2021/12/25 00:26:06;;;;;;;38.30;19.87;;;9.50;99.90;;;;;;5021256;28;21079;-44
2021/12/25 00:28:52;;;;;;;36.00;17.93;;;9.70;99.90;;;;;;5012782;28;20544;-44
2021/12/25 00:31:41;;;;;;;35.67;20.80;;;9.80;99.90;;;;;;5023716;28;20470;-45
2021/12/25 00:34:10;;;;;;;39.97;18.03;;;9.90;99.90;;;;;;5014218;28;20470;-45
2021/12/25 00:36:38;;;;;;;27.93;17.30;;;9.90;99.90;;;;;;5023279;28;20730;-44
2021/12/25 00:39:05;;;;;;;33.03;18.60;;;10.00;99.90;;;;;;5014617;28;20476;-44
2021/12/25 00:41:32;;;;;;;29.10;16.60;;;10.10;99.90;;;;;;5022992;28;20511;-44
2021/12/25 00:43:58;;;;;;;31.37;15.23;;;10.10;99.90;;;;;;5028457;28;20562;-44
2021/12/25 00:46:25;;;;;;;29.00;15.30;;;10.20;99.90;;;;;;5040750;28;20482;-45
2021/12/25 00:48:52;;;;;;;43.70;27.20;;;10.20;99.90;;;;;;5024282;28;20474;-45
2021/12/25 00:51:19;;;;;;;46.17;23.47;;;10.20;99.90;;;;;;5020787;28;20487;-45
2021/12/25 00:53:47;;;;;;;34.43;19.03;;;10.20;99.90;;;;;;5025932;28;20474;-45
2021/12/25 00:56:13;;;;;;;29.77;18.37;;;10.20;99.90;;;;;;5024529;28;20479;-46
2021/12/25 00:58:40;;;;;;;29.67;19.10;;;10.20;99.90;;;;;;5021675;28;20500;-44
2021/12/25 01:01:07;;;;;;;31.60;17.03;;;10.30;99.90;;;;;;5028361;28;20484;-44
2021/12/25 01:03:33;;;;;;;27.30;16.10;;;10.20;99.90;;;;;;5042205;28;20931;-45
2021/12/25 01:06:00;;;;;;;45.47;21.27;;;10.00;99.90;;;;;;5041677;28;21253;-44
2021/12/25 01:08:27;;;;;;;46.63;21.37;;;10.00;99.90;;;;;;5029683;28;20554;-44
2021/12/25 01:10:55;;;;;;;47.87;22.00;;;9.90;99.90;;;;;;5018315;28;20552;-44
2021/12/25 01:13:26;;;;;;;39.97;22.50;;;9.90;99.90;;;;;;5022003;28;20483;-45
2021/12/25 01:16:06;;;;;;;47.43;21.70;;;9.80;99.90;;;;;;5020685;28;20478;-45
2021/12/25 01:21:43;;;;;;;45.47;21.70;;;9.70;99.90;;;;;;5031445;28;20474;-44
2021/12/25 01:27:27;;;;;;;42.07;20.43;;;9.50;99.90;;;;;;4978990;28;20481;-43
2021/12/25 01:29:59;;;;;;;38.83;18.40;;;9.60;99.90;;;;;;5005356;28;20490;-44
2021/12/25 01:32:55;;;;;;;38.63;17.53;;;9.50;99.90;;;;;;5003377;28;20951;-43
2021/12/25 01:35:41;;;;;;;35.80;17.00;;;9.50;99.90;;;;;;5019091;28;20485;-43
2021/12/25 01:38:23;;;;;;;38.53;19.17;;;9.50;99.90;;;;;;5029355;28;20502;-44
2021/12/25 01:40:59;;;;;;;32.43;18.43;;;9.50;99.90;;;;;;5024166;28;20485;-44
2021/12/25 01:48:55;;;;;;;29.90;16.23;;;9.40;99.90;;;;;;5031930;28;20509;-44
2021/12/25 01:51:22;;;;;;;31.13;15.20;;;9.40;99.90;;;;;;5047402;28;20487;-44
2021/12/25 01:53:49;;;;;;;34.70;15.90;;;9.50;99.90;;;;;;5019561;28;20477;-43
2021/12/25 01:56:16;;;;;;;28.20;14.57;;;9.50;99.90;;;;;;5023365;28;20485;-44
2021/12/25 01:58:44;;;;;;;32.10;16.33;;;9.60;99.90;;;;;;5019065;28;20482;-44
2021/12/25 02:01:12;;;;;;;29.40;17.07;;;9.60;99.90;;;;;;5022003;28;20483;-44
2021/12/25 02:03:40;;;;;;;25.30;14.33;;;9.70;99.90;;;;;;5046675;28;21395;-48
2021/12/25 02:06:09;;;;;;;24.83;16.10;;;9.80;99.90;;;;;;5014101;28;20508;-43
2021/12/25 02:08:36;;;;;;;26.10;12.97;;;9.90;99.90;;;;;;4996451;28;20467;-44
2021/12/25 02:11:05;;;;;;;21.30;13.03;;;9.90;99.90;;;;;;5009821;28;20486;-44
2021/12/25 02:13:31;;;;;;;27.47;16.00;;;9.90;99.90;;;;;;5025935;28;20482;-44
2021/12/25 02:16:01;;;;;;;28.40;13.77;;;10.00;99.90;;;;;;5027430;28;21212;-44
2021/12/25 02:18:33;;;;;;;24.20;12.87;;;10.10;99.90;;;;;;5033676;28;21298;-44
2021/12/25 02:21:09;;;;;;;24.87;13.70;;;10.20;99.90;;;;;;5018898;28;20484;-43
2021/12/25 02:23:36;;;;;;;31.60;13.93;;;10.20;99.90;;;;;;5041130;28;20478;-44
2021/12/25 02:26:04;;;;;;;22.30;12.40;;;10.20;99.90;;;;;;5022819;28;20690;-43
2021/12/25 02:28:32;;;;;;;23.87;13.67;;;10.20;99.90;;;;;;5023545;28;20482;-44
2021/12/25 02:31:04;;;;;;;23.10;11.20;;;10.20;99.90;;;;;;5046944;28;20477;-43
2021/12/25 02:33:31;;;;;;;21.70;12.30;;;10.10;99.90;;;;;;5028534;28;20499;-43
2021/12/25 02:35:58;;;;;;;20.20;12.17;;;10.10;99.90;;;;;;5044656;28;20521;-44
2021/12/25 02:38:27;;;;;;;20.00;12.60;;;10.00;99.90;;;;;;5027552;28;20489;-44
2021/12/25 02:40:55;;;;;;;25.60;12.17;;;10.00;99.90;;;;;;5018056;28;20476;-44
2021/12/25 02:43:22;;;;;;;29.07;14.30;;;10.00;99.90;;;;;;5028255;28;20476;-44
2021/12/25 02:45:49;;;;;;;29.47;14.27;;;10.00;99.90;;;;;;5021138;28;20500;-43
2021/12/25 02:48:19;;;;;;;22.07;13.50;;;9.90;99.90;;;;;;5022174;28;20476;-44
2021/12/25 02:50:48;;;;;;;23.40;13.07;;;9.90;99.90;;;;;;5051941;28;20482;-43
2021/12/25 02:53:15;;;;;;;23.20;13.40;;;9.90;99.90;;;;;;5027292;28;21111;-43
2021/12/25 02:55:45;;;;;;;32.60;13.73;;;9.90;99.90;;;;;;5023832;28;20475;-43
2021/12/25 02:58:13;;;;;;;28.80;12.60;;;9.90;99.90;;;;;;5015170;28;20494;-43
2021/12/25 03:00:43;;;;;;;32.63;14.03;;;9.90;99.90;;;;;;5027295;28;20572;-43
2021/12/25 03:03:10;;;;;;;28.40;15.37;;;9.90;99.90;;;;;;5039141;28;20560;-43
2021/12/25 03:05:37;;;;;;;28.27;13.83;;;9.80;99.90;;;;;;5036538;28;20572;-44
2021/12/25 03:08:05;;;;;;;30.83;16.50;;;9.80;99.90;;;;;;5026080;28;20916;-43
2021/12/25 03:10:34;;;;;;;29.33;13.13;;;9.70;99.90;;;;;;5030714;28;20511;-43
2021/12/25 03:13:18;;;;;;;23.60;12.37;;;9.80;99.90;;;;;;5027650;28;20482;-43
2021/12/25 03:15:47;;;;;;;26.20;13.23;;;9.90;99.90;;;;;;5018275;28;21305;-43
2021/12/25 03:18:15;;;;;;;24.73;12.13;;;10.00;99.90;;;;;;5023704;28;20568;-44
2021/12/25 03:20:44;;;;;;;92.83;15.93;;;10.00;99.90;;;;;;5027313;28;20512;-46
2021/12/25 03:23:12;;;;;;;32.70;13.60;;;9.90;99.90;;;;;;5027741;28;20484;-44
2021/12/25 03:25:39;;;;;;;24.83;11.33;;;9.90;99.90;;;;;;5030112;28;20486;-44
2021/12/25 03:28:07;;;;;;;25.23;12.27;;;9.90;99.90;;;;;;5024228;28;20478;-43
2021/12/25 03:30:37;;;;;;;31.97;14.00;;;9.90;99.90;;;;;;5010921;28;20544;-44
2021/12/25 03:33:04;;;;;;;29.10;14.40;;;9.90;99.90;;;;;;5012685;28;20646;-44
2021/12/25 03:35:31;;;;;;;29.30;13.80;;;9.90;99.90;;;;;;4999258;28;20501;-44
2021/12/25 03:37:58;;;;;;;32.70;14.60;;;9.90;99.90;;;;;;5039190;28;21295;-44
2021/12/25 03:40:25;;;;;;;29.17;16.10;;;9.90;99.90;;;;;;5025224;28;20957;-44
2021/12/25 03:42:51;;;;;;;28.40;13.40;;;9.90;99.90;;;;;;5042781;28;21036;-44
2021/12/25 03:45:19;;;;;;;33.17;14.30;;;9.90;99.90;;;;;;5029611;28;21566;-44
2021/12/25 03:47:49;;;;;;;35.10;16.17;;;9.90;99.90;;;;;;5022372;28;20474;-44
2021/12/25 03:53:11;;;;;;;38.00;15.37;;;10.00;99.90;;;;;;5029780;28;20878;-44
2021/12/25 03:58:27;;;;;;;36.53;15.77;;;9.90;99.90;;;;;;4993044;28;20502;-44
2021/12/25 04:01:00;;;;;;;36.77;17.40;;;9.90;99.90;;;;;;5024740;28;20493;-44
2021/12/25 04:03:40;;;;;;;38.07;19.50;;;10.00;99.90;;;;;;5017252;28;20482;-44
2021/12/25 04:06:09;;;;;;;37.00;18.23;;;9.90;99.90;;;;;;5038123;28;20486;-44
2021/12/25 04:08:42;;;;;;;36.83;15.60;;;9.90;99.90;;;;;;5017935;28;20506;-43
2021/12/25 04:11:13;;;;;;;55.30;21.17;;;9.90;99.90;;;;;;5026961;28;20593;-43
2021/12/25 04:13:40;;;;;;;42.40;18.73;;;9.90;99.90;;;;;;5019098;28;20572;-43
2021/12/25 04:16:08;;;;;;;45.90;20.83;;;10.00;99.90;;;;;;5024838;28;20981;-43
2021/12/25 04:18:35;;;;;;;31.60;15.47;;;9.90;99.90;;;;;;5026487;28;20484;-44
2021/12/25 04:21:02;;;;;;;33.87;17.20;;;10.00;99.90;;;;;;5028371;28;20489;-44
2021/12/25 04:23:29;;;;;;;38.03;19.00;;;10.00;99.90;;;;;;5008561;28;20477;-44
2021/12/25 04:25:58;;;;;;;27.13;14.23;;;9.90;99.90;;;;;;5015556;28;20497;-45
2021/12/25 04:28:36;;;;;;;43.07;19.00;;;10.00;99.90;;;;;;5018944;28;21306;-43
2021/12/25 04:31:21;;;;;;;37.10;17.70;;;10.00;99.90;;;;;;5013608;28;20477;-44
2021/12/25 04:48:27;;;;;;;26.50;13.83;;;10.00;99.90;;;;;;5001081;28;20519;-45
2021/12/25 05:01:55;;;;;;;31.53;17.00;;;10.00;99.90;;;;;;5008929;28;20575;-44
2021/12/25 05:04:25;;;;;;;32.30;16.03;;;10.00;99.90;;;;;;5016646;28;20557;-44
2021/12/25 05:06:54;;;;;;;36.67;20.07;;;10.00;99.90;;;;;;5022120;28;20573;-44
2021/12/25 05:09:21;;;;;;;30.37;16.50;;;10.00;99.90;;;;;;5014239;28;20491;-44
2021/12/25 05:11:48;;;;;;;34.80;19.47;;;10.10;99.90;;;;;;5015248;28;20488;-44
2021/12/25 05:14:15;;;;;;;30.27;15.47;;;10.10;99.90;;;;;;5013529;28;20482;-45
2021/12/25 05:16:41;;;;;;;22.53;13.17;;;10.10;99.90;;;;;;5019925;28;20538;-44
2021/12/25 05:19:08;;;;;;;25.47;13.13;;;10.20;99.90;;;;;;5017955;28;20483;-44
2021/12/25 05:21:35;;;;;;;19.57;12.03;;;10.20;99.90;;;;;;5010192;28;20571;-44
2021/12/25 05:24:05;;;;;;;20.00;12.40;;;10.20;99.90;;;;;;5024512;28;20490;-44
2021/12/25 05:26:32;;;;;;;24.10;12.40;;;10.20;99.90;;;;;;5014367;28;20491;-44
2021/12/25 05:29:01;;;;;;;23.83;14.03;;;10.10;99.90;;;;;;5010837;28;21111;-44
2021/12/25 05:31:29;;;;;;;19.53;12.50;;;10.20;99.90;;;;;;5015361;28;20490;-44
2021/12/25 05:33:56;;;;;;;21.00;11.83;;;10.20;99.90;;;;;;5028535;28;20494;-45
2021/12/25 05:36:24;;;;;;;19.03;11.40;;;10.20;99.90;;;;;;5009544;28;20490;-44
2021/12/25 05:38:51;;;;;;;18.20;11.47;;;10.30;99.90;;;;;;5027215;28;20495;-45
2021/12/25 05:41:19;;;;;;;19.10;10.70;;;10.30;99.90;;;;;;5020958;28;20843;-45
2021/12/25 05:43:45;;;;;;;18.67;12.60;;;10.30;99.90;;;;;;5018862;28;20487;-43
2021/12/25 05:46:12;;;;;;;20.03;12.47;;;10.30;99.90;;;;;;5012396;28;20486;-44
2021/12/25 05:48:39;;;;;;;16.53;11.33;;;10.30;99.90;;;;;;5042122;28;20900;-44
2021/12/25 05:51:06;;;;;;;20.43;12.27;;;10.30;99.90;;;;;;5021973;28;20490;-44
2021/12/25 05:53:33;;;;;;;19.40;11.60;;;10.20;99.90;;;;;;5017326;28;20484;-45
2021/12/25 05:56:00;;;;;;;23.80;13.37;;;10.20;99.90;;;;;;5008231;28;20482;-45
2021/12/25 05:58:28;;;;;;;21.27;12.10;;;10.20;99.90;;;;;;5023250;28;20481;-44
2021/12/25 06:00:55;;;;;;;17.47;10.53;;;10.20;99.90;;;;;;5014284;28;20471;-44
2021/12/25 06:03:22;;;;;;;21.03;13.33;;;10.20;99.90;;;;;;5019259;28;20914;-44
2021/12/25 06:05:48;;;;;;;23.60;11.87;;;10.20;99.90;;;;;;5017918;28;20491;-45
2021/12/25 06:08:15;;;;;;;23.27;13.13;;;10.20;99.90;;;;;;5014913;28;20540;-44
2021/12/25 06:10:43;;;;;;;22.10;12.30;;;10.20;99.90;;;;;;5026395;28;21050;-45
2021/12/25 06:13:14;;;;;;;19.80;13.13;;;10.20;99.90;;;;;;5022549;28;20809;-44
2021/12/25 06:15:43;;;;;;;26.87;14.47;;;10.30;99.90;;;;;;5023576;28;21091;-45
2021/12/25 06:18:10;;;;;;;23.73;14.03;;;10.30;99.90;;;;;;5020486;28;20483;-44
2021/12/25 06:20:37;;;;;;;21.40;12.80;;;10.30;99.90;;;;;;5020772;28;20526;-52
2021/12/25 06:23:05;;;;;;;23.50;12.70;;;10.30;99.90;;;;;;5021242;28;20541;-45
2021/12/25 06:25:32;;;;;;;34.87;13.80;;;10.30;99.90;;;;;;5022214;28;20835;-44
2021/12/25 06:27:58;;;;;;;20.03;12.37;;;10.30;99.90;;;;;;5015833;28;20906;-45
2021/12/25 06:30:26;;;;;;;28.77;13.80;;;10.30;99.90;;;;;;5011479;28;20501;-44
2021/12/25 06:32:54;;;;;;;24.17;14.47;;;10.30;99.90;;;;;;5013347;28;20482;-44
2021/12/25 06:35:21;;;;;;;21.90;11.87;;;10.30;99.90;;;;;;5044709;28;21020;-44
2021/12/25 06:37:48;;;;;;;19.00;12.83;;;10.30;99.90;;;;;;5016618;28;20492;-45
2021/12/25 06:40:18;;;;;;;24.73;14.97;;;10.30;99.90;;;;;;5024404;28;20485;-44
2021/12/25 06:42:45;;;;;;;22.53;13.57;;;10.40;99.90;;;;;;5017408;28;20494;-44
2021/12/25 06:45:12;;;;;;;25.67;15.80;;;10.40;99.90;;;;;;5022236;28;20487;-45
2021/12/25 06:47:39;;;;;;;20.13;13.17;;;10.30;99.90;;;;;;5022064;28;20543;-44
2021/12/25 06:50:09;;;;;;;29.47;15.70;;;10.40;99.90;;;;;;5033954;28;20497;-45
2021/12/25 06:52:36;;;;;;;28.50;14.20;;;10.40;99.90;;;;;;5025054;28;20488;-45
2021/12/25 06:55:04;;;;;;;24.50;16.10;;;10.40;99.90;;;;;;5027340;28;20498;-44
2021/12/25 06:57:32;;;;;;;26.07;15.03;;;10.40;99.90;;;;;;5018804;28;20491;-45
2021/12/25 06:59:58;;;;;;;25.53;13.80;;;10.40;99.90;;;;;;5018736;28;20539;-44
2021/12/25 07:02:25;;;;;;;23.20;12.50;;;10.30;99.90;;;;;;5019621;28;20482;-45
2021/12/25 07:04:52;;;;;;;27.70;15.50;;;10.30;99.90;;;;;;5022039;28;20482;-45
2021/12/25 07:07:23;;;;;;;25.43;14.97;;;10.30;99.90;;;;;;5037755;28;20562;-45
2021/12/25 07:09:50;;;;;;;27.83;17.60;;;10.30;99.90;;;;;;5022460;28;20536;-45
2021/12/25 07:12:19;;;;;;;25.43;14.67;;;10.30;99.90;;;;;;5019544;28;21018;-44
2021/12/25 07:14:45;;;;;;;27.77;14.07;;;10.30;99.90;;;;;;5021090;28;20486;-45
2021/12/25 07:17:12;;;;;;;37.57;19.03;;;10.30;99.90;;;;;;5018187;28;21046;-45
2021/12/25 07:19:39;;;;;;;25.40;13.87;;;10.20;99.90;;;;;;5017723;28;21329;-45
2021/12/25 07:22:05;;;;;;;35.80;14.67;;;10.20;99.90;;;;;;5017617;28;20488;-45
2021/12/25 07:24:34;;;;;;;21.87;14.23;;;10.20;99.90;;;;;;5023696;28;20530;-45
2021/12/25 07:27:05;;;;;;;25.90;14.40;;;10.30;99.90;;;;;;5000982;28;20493;-45
2021/12/25 07:29:32;;;;;;;23.10;14.23;;;10.20;99.90;;;;;;5011753;28;20486;-44
2021/12/25 07:31:59;;;;;;;24.53;14.47;;;10.30;99.90;;;;;;5019876;28;20486;-45
2021/12/25 07:34:26;;;;;;;21.97;13.43;;;10.30;99.90;;;;;;5020006;28;20529;-45
2021/12/25 07:36:53;;;;;;;28.33;12.43;;;10.30;99.90;;;;;;5018708;28;20482;-45
2021/12/25 07:39:19;;;;;;;20.73;11.93;;;10.30;99.90;;;;;;5016101;28;20478;-44
2021/12/25 07:41:48;;;;;;;20.43;12.60;;;10.30;99.90;;;;;;5007566;28;20939;-45
2021/12/25 07:44:15;;;;;;;28.07;12.50;;;10.30;99.90;;;;;;5019243;28;20549;-45
2021/12/25 07:46:42;;;;;;;21.93;13.53;;;10.30;99.90;;;;;;5040590;28;20480;-45
2021/12/25 07:49:15;;;;;;;22.33;13.40;;;10.30;99.90;;;;;;5008568;28;20481;-45
2021/12/25 07:51:42;;;;;;;23.13;13.60;;;10.30;99.90;;;;;;5024060;28;20478;-45
2021/12/25 07:54:09;;;;;;;25.70;15.00;;;10.30;99.90;;;;;;5014814;28;20478;-45
2021/12/25 07:56:36;;;;;;;20.00;13.57;;;10.20;99.90;;;;;;5008437;28;20491;-45
2021/12/25 07:59:05;;;;;;;29.20;13.83;;;10.30;99.90;;;;;;5010341;28;20460;-45
2021/12/25 08:01:34;;;;;;;21.27;12.47;;;10.30;99.90;;;;;;5008968;28;20487;-45
2021/12/25 08:04:01;;;;;;;23.00;12.47;;;10.30;99.90;;;;;;5011549;28;20492;-45
2021/12/25 08:06:30;;;;;;;23.00;13.17;;;10.30;99.90;;;;;;5011510;28;20499;-46
2021/12/25 08:09:00;;;;;;;24.43;13.17;;;10.30;99.90;;;;;;5016473;28;20485;-46
2021/12/25 08:11:27;;;;;;;22.80;14.57;;;10.30;99.90;;;;;;5018565;28;20476;-45
2021/12/25 08:13:54;;;;;;;22.80;12.90;;;10.30;99.90;;;;;;5033927;28;20988;-46
2021/12/25 08:16:22;;;;;;;19.20;12.87;;;10.30;99.90;;;;;;5015024;28;21055;-45
2021/12/25 08:18:49;;;;;;;28.23;13.60;;;10.30;99.90;;;;;;5017140;28;20549;-45
2021/12/25 08:21:16;;;;;;;19.47;11.93;;;10.30;99.90;;;;;;5017424;28;20484;-45
2021/12/25 08:23:43;;;;;;;23.60;13.47;;;10.40;99.90;;;;;;5011673;28;20486;-45
2021/12/25 08:26:10;;;;;;;17.60;12.40;;;10.40;99.90;;;;;;5005472;28;20491;-45
2021/12/25 08:28:36;;;;;;;22.63;13.63;;;10.40;99.90;;;;;;5023342;28;20495;-45
2021/12/25 08:31:04;;;;;;;25.30;13.57;;;10.40;99.90;;;;;;5031114;28;20556;-45
2021/12/25 08:33:32;;;;;;;21.20;13.97;;;10.40;99.90;;;;;;5010436;28;20491;-45
2021/12/25 08:35:59;;;;;;;18.00;12.17;;;10.50;99.90;;;;;;5023850;28;21800;-46
2021/12/25 08:38:25;;;;;;;21.47;12.33;;;10.40;99.90;;;;;;5015503;28;20544;-46
2021/12/25 08:40:55;;;;;;;21.03;13.87;;;10.50;99.90;;;;;;5017597;28;20538;-45
2021/12/25 08:43:24;;;;;;;29.53;15.10;;;10.50;99.90;;;;;;5009150;28;20494;-45
2021/12/25 08:46:01;;;;;;;20.23;13.60;;;10.60;99.90;;;;;;5017898;28;20981;-45
2021/12/25 08:48:29;;;;;;;22.83;13.60;;;10.50;99.90;;;;;;5019941;28;20824;-45
2021/12/25 08:50:59;;;;;;;29.30;15.00;;;10.50;99.90;;;;;;5017644;28;20526;-45
2021/12/25 08:53:28;;;;;;;20.83;13.40;;;10.50;99.90;;;;;;5017457;28;20487;-45
2021/12/25 08:55:56;;;;;;;23.30;12.70;;;10.50;99.90;;;;;;5017128;28;20899;-45
2021/12/25 08:58:24;;;;;;;23.87;13.70;;;10.40;99.90;;;;;;5018044;28;20494;-45
2021/12/25 09:00:55;;;;;;;28.30;15.57;;;10.40;99.90;;;;;;5017586;28;20713;-45
2021/12/25 09:03:22;;;;;;;25.47;13.73;;;10.50;99.90;;;;;;5011865;28;20487;-45
2021/12/25 09:05:48;;;;;;;18.47;12.80;;;10.50;99.90;;;;;;5016955;28;20553;-45
2021/12/25 09:08:16;;;;;;;19.50;12.20;;;10.40;99.90;;;;;;5023891;28;20490;-45
2021/12/25 09:10:43;;;;;;;21.77;13.60;;;10.50;99.90;;;;;;5006189;28;20491;-45
2021/12/25 09:13:10;;;;;;;25.53;14.37;;;10.40;99.90;;;;;;5022495;28;20497;-44
2021/12/25 09:15:38;;;;;;;14.93;10.63;;;10.40;99.90;;;;;;5021468;28;20525;-44
2021/12/25 09:18:05;;;;;;;21.60;13.43;;;10.40;99.90;;;;;;5015569;28;20482;-45
2021/12/25 09:20:31;;;;;;;22.60;13.00;;;10.50;99.90;;;;;;5040190;28;21103;-45
2021/12/25 09:22:58;;;;;;;22.73;13.47;;;10.50;99.90;;;;;;5020155;28;20540;-45
2021/12/25 09:25:27;;;;;;;19.90;14.30;;;10.50;99.90;;;;;;5018875;28;21126;-45
2021/12/25 09:27:54;;;;;;;16.53;11.23;;;10.60;99.90;;;;;;5017053;28;20553;-44
2021/12/25 09:30:21;;;;;;;14.67;10.67;;;10.60;99.90;;;;;;5015944;28;20486;-45
2021/12/25 09:32:49;;;;;;;20.30;13.07;;;10.60;99.90;;;;;;5020028;28;20835;-48
2021/12/25 09:35:16;;;;;;;11.93;10.47;;;10.70;99.90;;;;;;5014830;28;20519;-45
2021/12/25 09:37:43;;;;;;;18.30;12.07;;;10.70;99.90;;;;;;5012141;28;20478;-47
2021/12/25 09:40:11;;;;;;;18.90;11.17;;;10.70;99.90;;;;;;5045578;28;20483;-47
2021/12/25 09:42:40;;;;;;;14.97;9.60;;;10.70;99.90;;;;;;5014956;28;20534;-47
2021/12/25 09:45:08;;;;;;;18.60;13.27;;;10.70;99.90;;;;;;5020642;28;20488;-47
2021/12/25 09:47:35;;;;;;;17.57;11.30;;;10.80;99.90;;;;;;5020009;28;20482;-47
2021/12/25 09:50:03;;;;;;;16.87;9.90;;;10.80;99.90;;;;;;5022468;28;20478;-47
2021/12/25 09:52:29;;;;;;;20.77;10.60;;;10.70;99.90;;;;;;5019942;28;20825;-47
2021/12/25 09:54:56;;;;;;;15.63;9.87;;;10.80;99.90;;;;;;5015332;28;20552;-47
2021/12/25 09:57:24;;;;;;;18.93;11.40;;;10.80;99.90;;;;;;5039896;28;20970;-47
2021/12/25 09:59:53;;;;;;;15.43;9.47;;;10.80;99.90;;;;;;5007826;28;20718;-47
2021/12/25 10:02:21;;;;;;;12.50;10.20;;;10.80;99.90;;;;;;5027529;28;20475;-47
2021/12/25 10:04:50;;;;;;;15.40;9.13;;;10.80;99.90;;;;;;5024509;28;20541;-46
2021/12/25 10:07:24;;;;;;;10.47;7.57;;;10.80;99.90;;;;;;5016997;28;20976;-47
2021/12/25 10:10:05;;;;;;;9.57;7.80;;;10.80;99.90;;;;;;5014735;28;20877;-47
2021/12/25 10:12:37;;;;;;;13.30;8.47;;;10.80;99.90;;;;;;5024195;28;20477;-47
2021/12/25 10:15:08;;;;;;;11.40;7.93;;;10.70;99.90;;;;;;5004806;28;20541;-47
2021/12/25 10:17:35;;;;;;;19.40;8.87;;;10.80;99.90;;;;;;4997151;28;20477;-47
2021/12/25 10:20:08;;;;;;;12.23;8.43;;;10.80;99.90;;;;;;5015036;28;20484;-47
2021/12/25 10:22:36;;;;;;;13.20;9.20;;;10.80;99.90;;;;;;5008888;28;20482;-47
2021/12/25 10:25:09;;;;;;;14.33;8.67;;;10.90;99.90;;;;;;5007611;28;20515;-48
2021/12/25 10:27:37;;;;;;;18.90;10.37;;;10.80;99.90;;;;;;4997252;28;20486;-47
2021/12/25 10:30:07;;;;;;;15.13;10.03;;;10.80;99.90;;;;;;5026414;28;20487;-48
2021/12/25 10:32:39;;;;;;;13.90;9.63;;;10.90;99.90;;;;;;5019344;28;20483;-46
2021/12/25 10:35:14;;;;;;;12.67;9.40;;;10.90;99.90;;;;;;5012153;28;20869;-47
2021/12/25 10:37:43;;;;;;;14.63;7.73;;;11.00;99.90;;;;;;5017183;28;20826;-47
2021/12/25 10:40:27;;;;;;;9.60;7.30;;;11.00;99.90;;;;;;5031870;28;20545;-47
2021/12/25 10:42:56;;;;;;;11.67;8.73;;;11.00;99.90;;;;;;5004232;28;20484;-47
2021/12/25 10:45:26;;;;;;;13.70;9.00;;;11.00;99.90;;;;;;5010723;28;20494;-46
2021/12/25 10:48:06;;;;;;;16.70;8.93;;;10.90;99.90;;;;;;5015946;28;20521;-47
2021/12/25 10:50:40;;;;;;;15.90;9.37;;;11.00;99.90;;;;;;5021038;28;20493;-47
2021/12/25 10:53:27;;;;;;;11.07;8.07;;;11.00;99.90;;;;;;5021601;28;20491;-47
2021/12/25 10:56:04;;;;;;;10.93;7.43;;;10.90;99.90;;;;;;5013670;28;20664;-47
2021/12/25 10:58:31;;;;;;;9.30;7.50;;;10.90;99.90;;;;;;5019086;28;20545;-47
2021/12/25 11:00:59;;;;;;;13.57;8.00;;;10.90;99.90;;;;;;5020119;28;20853;-47
2021/12/25 11:03:29;;;;;;;15.87;9.90;;;10.90;99.90;;;;;;5022158;28;20569;-47
2021/12/25 11:06:02;;;;;;;14.00;9.30;;;10.90;99.90;;;;;;5010538;28;20549;-48
2021/12/25 11:08:30;;;;;;;8.63;7.73;;;11.00;99.90;;;;;;5009210;28;20483;-47
2021/12/25 11:11:00;;;;;;;14.50;9.17;;;11.00;99.90;;;;;;5025726;28;20482;-49
2021/12/25 11:13:29;;;;;;;14.03;8.73;;;11.00;99.90;;;;;;5007644;28;20496;-47
2021/12/25 11:16:03;;;;;;;11.00;7.90;;;11.00;99.90;;;;;;5015533;28;20488;-47
2021/12/25 11:18:30;;;;;;;10.97;8.00;;;11.10;99.90;;;;;;5002672;28;20503;-47
2021/12/25 11:20:59;;;;;;;10.50;7.40;;;11.10;99.90;;;;;;5011754;28;20558;-49
2021/12/25 11:23:27;;;;;;;12.30;7.73;;;11.10;99.90;;;;;;5021482;28;20575;-47
2021/12/25 11:25:54;;;;;;;12.30;8.37;;;11.20;99.90;;;;;;5015304;28;20494;-47
2021/12/25 11:28:21;;;;;;;12.37;6.87;;;11.20;99.90;;;;;;5021169;28;20487;-47
2021/12/25 11:30:51;;;;;;;8.27;7.00;;;11.20;99.90;;;;;;5022706;28;20923;-47
2021/12/25 11:33:19;;;;;;;9.00;6.90;;;11.10;99.90;;;;;;5019379;28;20496;-47
2021/12/25 11:35:46;;;;;;;9.77;7.40;;;11.20;99.90;;;;;;5018120;28;20533;-47
2021/12/25 11:38:13;;;;;;;7.13;6.13;;;11.20;99.90;;;;;;5016141;28;21058;-47
2021/12/25 11:40:47;;;;;;;12.50;5.60;;;11.20;99.90;;;;;;5019330;28;20491;-48
2021/12/25 11:43:14;;;;;;;12.10;6.50;;;11.20;99.90;;;;;;5007103;28;21017;-49
2021/12/25 11:45:48;;;;;;;8.83;6.10;;;11.20;99.90;;;;;;5034321;28;20495;-48
2021/12/25 11:48:17;;;;;;;8.37;6.53;;;11.20;99.90;;;;;;5016614;28;20491;-48
2021/12/25 11:50:48;;;;;;;6.80;6.10;;;11.20;99.90;;;;;;5016960;28;20534;-56
2021/12/25 11:53:20;;;;;;;8.13;6.00;;;11.20;99.90;;;;;;5019699;28;20479;-47
2021/12/25 11:58:40;;;;;;;8.57;6.70;;;11.20;99.90;;;;;;5001104;28;20486;-47
2021/12/25 12:01:32;;;;;;;6.40;5.80;;;11.10;99.90;;;;;;5030400;28;21006;-47
2021/12/25 12:04:00;;;;;;;7.13;6.27;;;11.10;99.90;;;;;;5015714;28;20992;-47
2021/12/25 12:07:09;;;;;;;6.73;6.10;;;11.10;99.90;;;;;;5014979;28;20483;-47
2021/12/25 12:12:41;;;;;;;7.10;6.30;;;11.10;99.90;;;;;;5080901;27;20577;-47
2021/12/25 12:15:14;;;;;;;7.53;5.97;;;11.10;99.90;;;;;;5097188;28;20480;-48
2021/12/25 12:17:43;;;;;;;9.10;7.77;;;11.00;99.90;;;;;;5094379;28;20484;-47
2021/12/25 12:20:16;;;;;;;11.80;6.60;;;11.00;99.90;;;;;;5092589;27;20893;-47
2021/12/25 12:25:59;;;;;;;11.23;6.53;;;11.10;99.90;;;;;;5066280;28;20539;-49
2021/12/25 12:28:52;;;;;;;9.83;6.03;;;11.10;99.90;;;;;;5089332;27;20479;-47
2021/12/25 12:31:39;;;;;;;7.37;6.50;;;11.20;99.90;;;;;;5085860;27;20486;-48
2021/12/25 12:34:38;;;;;;;6.50;5.77;;;11.20;99.90;;;;;;5102706;27;20541;-47
2021/12/25 12:37:27;;;;;;;7.23;6.03;;;11.20;99.90;;;;;;5082661;27;20988;-47
2021/12/25 12:40:19;;;;;;;6.03;5.43;;;11.20;99.90;;;;;;5093524;27;20762;-47
2021/12/25 12:42:55;;;;;;;7.33;5.93;;;11.30;99.90;;;;;;5069895;28;20555;-47
2021/12/25 12:45:26;;;;;;;7.07;6.40;;;11.40;99.90;;;;;;5092332;28;21032;-48
2021/12/25 12:48:11;;;;;;;7.00;6.30;;;11.30;99.90;;;;;;5093418;27;20491;-48
2021/12/25 12:50:40;;;;;;;6.67;5.60;;;11.40;99.90;;;;;;5082352;28;20505;-47
2021/12/25 12:53:09;;;;;;;6.13;5.53;;;11.40;99.90;;;;;;5066477;28;20491;-47
2021/12/25 12:55:38;;;;;;;8.73;5.50;;;11.40;99.90;;;;;;5049908;28;20528;-47
2021/12/25 12:58:12;;;;;;;7.23;4.43;;;11.40;99.90;;;;;;5082694;27;20574;-48
2021/12/25 13:00:42;;;;;;;5.63;5.10;;;11.30;99.90;;;;;;5049327;28;20904;-47
2021/12/25 13:03:09;;;;;;;6.70;5.03;;;11.30;99.90;;;;;;5089789;27;20537;-48
2021/12/25 13:05:39;;;;;;;5.90;4.70;;;11.30;99.90;;;;;;5079508;27;20470;-48
2021/12/25 13:08:14;;;;;;;6.63;5.73;;;11.20;99.90;;;;;;5067294;28;20493;-47
2021/12/25 13:10:47;;;;;;;5.87;4.43;;;11.20;99.90;;;;;;5069529;28;20473;-47
2021/12/25 13:13:17;;;;;;;7.83;5.60;;;11.20;99.90;;;;;;5062181;28;20480;-47
2021/12/25 13:15:49;;;;;;;9.93;7.10;;;11.00;99.90;;;;;;5051349;28;20500;-47
2021/12/25 13:18:17;;;;;;;9.87;6.47;;;11.00;99.90;;;;;;5065482;28;20534;-47
2021/12/25 13:20:46;;;;;;;7.00;6.30;;;11.00;99.90;;;;;;5074540;28;20551;-47
2021/12/25 13:23:16;;;;;;;7.60;5.63;;;10.90;99.90;;;;;;5080262;27;20493;-47
2021/12/25 13:25:49;;;;;;;9.70;6.80;;;10.90;99.90;;;;;;5052992;28;20492;-47
2021/12/25 13:28:16;;;;;;;11.17;6.67;;;10.90;99.90;;;;;;5063000;28;20481;-47
2021/12/25 13:30:49;;;;;;;9.23;7.37;;;11.00;99.90;;;;;;5080414;28;20480;-48
2021/12/25 13:33:20;;;;;;;16.23;6.07;;;11.10;99.90;;;;;;5078403;28;21689;-47
2021/12/25 13:35:48;;;;;;;11.23;7.13;;;11.10;99.90;;;;;;5073374;28;20540;-48
2021/12/25 13:38:15;;;;;;;9.07;6.63;;;11.00;99.90;;;;;;5070286;27;20491;-47